Latest Weather Observations for Mudgee

IDN60801

Issued at 11:02 am EST Sunday 30 August 2015 (issued every 30 minutes, with the page automatically refreshed every 10 minutes)

About weather observations | Map of weather stations | Latest weather observations for NSW | Other Formats
Station Details ID: 062101 Name: MUDGEE AIRPORT AWS Lat: -32.56 Lon: 149.61 Height: 471.0 m
Data from the previous 72 hours. | See also: Recent months at Mudgee
Date/Time
EST
Temp
°C
App
Temp
°C
Dew
Point
Rel
Hum
%
Delta-T
°C
Wind Press
QNH
hPa
Press
MSL
hPa
Rain
since 9 am
mm
Dir
 
Spd
km/h
Gust
km/h
Spd
kts
Gust
kts
30/10:30am 10.4 7.0 2.0 56 3.6 SSE 9 15 5 8 1020.5 1020.9 0.0
30/10:00am 9.1 7.0 3.9 70 2.3 S 4 9 2 5 1020.7 1021.2 0.0
30/09:30am 7.6 4.9 3.8 77 1.7 S 7 11 4 6 1020.9 1021.4 0.0
30/09:00am 6.0 3.9 4.0 87 0.9 W 4 7 2 4 1020.9 1021.4 0.0
30/08:30am 4.2 1.4 2.9 91 0.5 S 7 11 4 6 1020.8 1021.3 0.0
30/08:00am 3.1 1.5 2.7 97 0.2 CALM 0 0 0 0 1020.7 1021.2 0.0
30/07:30am 1.1 -0.8 0.8 98 0.1 CALM 0 0 0 0 1020.7 1021.2 0.0
30/07:00am 0.1 -3.2 -0.2 98 0.1 ENE 7 9 4 5 1020.5 1020.9 0.0
30/06:30am -1.5 -3.7 -1.8 98 0.0 CALM 0 6 0 3 1020.1 1020.5 0.0
30/06:00am -1.2 -3.4 -1.5 98 0.0 CALM 0 0 0 0 1019.9 1020.3 0.0
30/05:30am -1.3 -4.6 -1.6 98 0.0 NE 6 7 3 4 1019.8 1020.2 0.0
30/05:00am -1.4 -6.1 -1.7 98 0.0 NE 13 13 7 7 1019.9 1020.3 0.0
30/04:30am -0.9 -4.2 -1.2 98 0.1 ENE 6 11 3 6 1019.9 1020.3 0.0
30/04:00am -1.1 -5.0 -1.4 98 0.1 NNE 9 11 5 6 1020.0 1020.4 0.0
30/03:30am -0.4 -4.6 -0.7 98 0.1 NNE 11 13 6 7 1020.1 1020.5 0.0
30/03:00am -0.1 -3.3 -0.4 98 0.1 N 6 9 3 5 1020.4 1020.8 0.0
30/02:30am 1.0 -2.0 0.7 98 0.1 NNE 6 7 3 4 1020.8 1021.3 0.0
30/02:00am 0.6 -2.7 0.0 96 0.2 N 7 9 4 5 1021.2 1021.7 0.0
30/01:30am 3.3 0.5 1.8 90 0.6 NE 6 7 3 4 1021.4 1021.9 0.0
30/01:00am 3.8 2.1 1.7 86 0.8 CALM 0 0 0 0 1022.0 1022.4 0.0
30/12:30am 4.1 2.3 1.3 82 1.1 CALM 0 4 0 2 1022.1 1022.5 0.0
30/12:00am 5.2 2.1 1.3 76 1.6 S 7 15 4 8 1022.2 1022.6 0.0
 
Date/Time
EST
Temp
°C
App
Temp
°C
Dew
Point
Rel
Hum
%
Delta-T
°C
Wind Press
QNH
hPa
Press
MSL
hPa
Rain
since 9 am
mm
Dir
 
Spd
km/h
Gust
km/h
Spd
kts
Gust
kts
29/11:30pm 4.5 1.6 1.4 80 1.3 SW 6 9 3 5 1022.3 1022.7 0.0
29/11:00pm 6.1 2.1 2.7 79 1.4 S 13 15 7 8 1022.4 1022.9 0.0
29/10:30pm 5.2 2.4 3.4 88 0.8 S 7 11 4 6 1022.5 1023.0 0.0
29/10:00pm 5.0 3.5 3.0 87 0.8 CALM 0 6 0 3 1022.6 1023.1 0.0
29/09:30pm 6.8 3.9 2.7 75 1.8 SW 7 11 4 6 1022.5 1023.0 0.0
29/09:00pm 7.6 4.3 2.7 71 2.1 SSW 9 11 5 6 1022.4 1022.9 0.0
29/08:30pm 8.1 5.2 2.8 69 2.3 SW 7 9 4 5 1022.4 1022.9 0.0
29/08:00pm 7.6 4.6 2.3 69 2.3 WNW 7 9 4 5 1022.2 1022.6 0.0
29/07:30pm 9.2 5.2 2.8 64 2.8 SW 13 19 7 10 1021.8 1022.2 0.0
29/07:00pm 9.0 4.3 3.0 66 2.6 SW 17 20 9 11 1021.4 1021.9 0.0
29/06:30pm 9.1 4.8 3.3 67 2.6 WSW 15 17 8 9 1021.0 1021.5 0.0
29/06:00pm 10.7 5.6 3.0 59 3.4 WSW 19 24 10 13 1020.8 1021.3 0.0
29/05:30pm 11.2 6.6 3.5 59 3.5 WSW 17 20 9 11 1020.6 1021.1 0.0
29/05:00pm 12.7 7.4 2.8 51 4.5 WSW 20 28 11 15 1020.3 1020.7 0.0
29/04:30pm 13.5 8.4 3.3 50 4.7 WSW 19 26 10 14 1020.2 1020.6 0.0
29/04:00pm 13.6 8.3 3.1 49 4.8 WSW 20 24 11 13 1020.2 1020.6 0.0
29/03:30pm 13.1 7.4 2.9 50 4.6 WSW 22 26 12 14 1020.4 1020.8 0.0
29/03:00pm 14.4 9.5 5.0 53 4.5 WNW 20 30 11 16 1020.6 1021.1 0.0
29/02:30pm 14.2 8.8 6.3 59 3.9 W 24 30 13 16 1020.8 1021.3 0.0
29/02:00pm 13.0 8.2 5.4 60 3.6 W 20 30 11 16 1021.1 1021.6 0.0
29/01:30pm 13.4 8.5 5.3 58 3.9 W 20 26 11 14 1021.4 1021.9 0.0
29/01:00pm 12.4 7.6 4.9 60 3.5 SW 19 26 10 14 1022.0 1022.4 0.0
29/12:30pm 13.7 9.3 6.6 62 3.5 WSW 19 30 10 16 1022.4 1022.9 0.0
29/12:00pm 12.9 7.7 5.6 61 3.5 W 22 33 12 18 1022.9 1023.4 0.0
29/11:30am 12.8 7.7 6.2 64 3.2 W 22 30 12 16 1023.2 1023.7 0.0
29/11:00am 12.4 6.1 5.6 63 3.2 WNW 28 35 15 19 1023.4 1023.9 0.0
29/10:55am 12.2 5.8 5.4 63 3.2 WNW 28 37 15 20 1023.5 1024.0 0.0
29/10:30am 11.4 8.7 7.5 77 1.9 NW 11 17 6 9 1023.7 1024.2 0.0
29/10:00am 9.5 7.7 9.4 99 0.1 NW 9 13 5 7 1024.1 1024.5 0.0
29/09:44am 7.8 6.1 7.7 99 0.0 NNW 6 9 3 5 1024.3 1024.8 0.0
29/09:30am 6.5 4.3 6.4 99 0.0 NW 7 11 4 6 1024.4 1024.9 0.0
29/09:00am 4.1 1.6 4.0 99 0.0 NNE 6 9 3 5 1024.3 1024.8 0.4
29/08:30am 2.3 -0.5 2.2 99 0.0 N 6 9 3 5 1024.4 1024.9 0.4
29/08:00am 1.6 -0.2 1.5 99 0.0 CALM 0 0 0 0 1024.2 1024.7 0.4
29/07:30am 0.7 -2.5 0.6 99 0.0 S 7 9 4 5 1024.0 1024.4 0.4
29/07:00am 0.5 -1.5 0.2 98 0.1 CALM 0 0 0 0 1023.7 1024.2 0.4
29/06:30am -0.1 -2.1 -0.4 98 0.1 CALM 0 0 0 0 1023.6 1024.1 0.2
29/06:00am -0.3 -2.4 -0.6 98 0.1 CALM 0 0 0 0 1023.6 1024.1 0.2
29/05:30am 0.0 -2.0 -0.3 98 0.1 CALM 0 0 0 0 1023.4 1023.9 0.2
29/05:00am 0.3 -1.7 0.0 98 0.1 CALM 0 0 0 0 1023.2 1023.7 0.2
29/04:30am 0.4 -1.6 0.1 98 0.1 CALM 0 0 0 0 1023.1 1023.6 0.2
29/04:11am 0.3 -1.7 0.0 98 0.1 CALM 0 0 0 0 1023.1 1023.6 0.2
29/04:00am -0.1 -2.1 -0.4 98 0.1 CALM 0 0 0 0 1023.1 1023.6 0.2
29/03:30am 0.6 -1.3 0.3 98 0.1 CALM 0 0 0 0 1023.0 1023.5 0.2
29/03:00am 0.7 -1.2 0.4 98 0.1 CALM 0 0 0 0 1023.1 1023.6 0.2
29/02:30am 0.7 -2.4 0.4 98 0.1 NNE 6 7 3 4 1023.4 1023.9 0.2
29/02:22am 1.5 -0.3 1.2 98 0.1 CALM 0 7 0 4 1023.4 1023.9 0.2
29/02:00am 1.7 -0.8 1.4 98 0.1 NE 4 7 2 4 1023.6 1024.1 0.2
29/01:30am 1.9 0.2 1.6 98 0.1 CALM 0 0 0 0 1023.7 1024.2 0.2
29/01:00am 2.3 0.2 2.0 98 0.1 ENE 2 6 1 3 1023.9 1024.3 0.2
29/12:30am 2.4 -0.6 2.1 98 0.1 NE 7 9 4 5 1024.1 1024.5 0.2
29/12:00am 2.0 -0.9 1.7 98 0.1 NNE 6 11 3 6 1024.1 1024.5 0.2
 
Date/Time
EST
Temp
°C
App
Temp
°C
Dew
Point
Rel
Hum
%
Delta-T
°C
Wind Press
QNH
hPa
Press
MSL
hPa
Rain
since 9 am
mm
Dir
 
Spd
km/h
Gust
km/h
Spd
kts
Gust
kts
28/11:30pm 3.0 -0.6 2.7 98 0.1 NE 11 13 6 7 1024.3 1024.8 0.2
28/11:00pm 3.0 -0.3 2.7 98 0.1 NE 9 11 5 6 1024.2 1024.7 0.2
28/10:30pm 3.7 2.3 3.4 98 0.1 CALM 0 0 0 0 1024.3 1024.8 0.2
28/10:00pm 3.5 -0.1 3.2 98 0.1 NNE 11 13 6 7 1024.3 1024.8 0.2
28/09:30pm 3.4 -0.6 3.1 98 0.1 NNE 13 13 7 7 1024.3 1024.8 0.2
28/09:00pm 4.0 0.5 3.7 98 0.1 NE 11 11 6 6 1024.2 1024.7 0.2
28/08:30pm 4.5 1.5 4.2 98 0.1 NNE 9 13 5 7 1024.1 1024.5 0.2
28/08:00pm 5.9 3.7 5.5 97 0.2 N 6 7 3 4 1023.9 1024.3 0.2
28/07:30pm 6.3 3.9 5.3 93 0.5 N 7 9 4 5 1023.5 1024.0 0.2
28/07:00pm 7.6 6.5 4.9 83 1.2 CALM 0 0 0 0 1023.4 1023.9 0.2
28/06:30pm 8.9 6.7 5.3 78 1.7 SSW 6 11 3 6 1023.2 1023.7 0.2
28/06:00pm 9.0 6.5 4.8 75 1.9 W 7 11 4 6 1023.1 1023.6 0.2
28/05:30pm 10.1 7.4 5.5 73 2.2 SW 9 13 5 7 1022.8 1023.3 0.2
28/05:00pm 11.2 7.8 5.9 70 2.5 WSW 13 19 7 10 1022.5 1023.0 0.2
28/04:30pm 11.3 7.1 5.8 69 2.6 W 17 22 9 12 1022.3 1022.7 0.2
28/04:00pm 11.3 7.8 5.4 67 2.8 WSW 13 19 7 10 1022.3 1022.7 0.2
28/03:30pm 12.0 7.3 5.2 63 3.2 WSW 19 24 10 13 1022.2 1022.6 0.2
28/03:00pm 11.8 7.7 6.3 69 2.7 WSW 17 22 9 12 1022.1 1022.5 0.2
28/02:30pm 11.6 7.1 6.1 69 2.6 WSW 19 26 10 14 1022.1 1022.5 0.2
28/02:00pm 11.5 6.3 5.4 66 2.9 WSW 22 30 12 16 1022.2 1022.6 0.2
28/01:30pm 11.9 8.2 6.4 69 2.7 W 15 20 8 11 1022.4 1022.9 0.0
28/01:00pm 11.0 6.5 6.2 72 2.3 WSW 19 24 10 13 1022.8 1023.3 0.0
28/12:30pm 10.9 6.3 5.7 70 2.5 W 19 24 10 13 1022.8 1023.3 0.0
28/12:00pm 11.0 5.8 5.7 70 2.5 W 22 28 12 15 1023.2 1023.7 0.0
28/11:30am 11.4 5.5 5.9 69 2.6 W 26 35 14 19 1023.4 1023.9 0.0
28/11:00am 11.2 5.8 6.3 72 2.4 W 24 30 13 16 1023.4 1023.9 0.0
28/10:30am 11.5 6.7 7.4 76 2.0 W 22 30 12 16 1023.4 1023.9 0.0
28/10:00am 10.1 5.1 6.4 78 1.8 WNW 22 28 12 15 1023.5 1024.0 0.0
28/09:49am 9.8 4.4 6.3 79 1.7 W 24 33 13 18 1023.4 1023.9 0.0
28/09:30am 9.2 4.2 6.5 83 1.3 W 22 28 12 15 1023.4 1023.9 0.0
28/09:00am 9.1 4.6 6.9 86 1.1 W 20 26 11 14 1023.3 1023.8 0.8
28/08:49am 9.2 4.9 7.2 87 1.0 WNW 19 24 10 13 1023.3 1023.8 0.8
28/08:30am 8.6 5.4 6.9 89 0.8 NW 13 20 7 11 1023.0 1023.5 0.8
28/08:24am 8.8 6.1 7.3 90 0.7 NW 11 17 6 9 1023.1 1023.6 0.8
28/08:00am 8.0 5.1 6.3 89 0.8 NW 11 15 6 8 1022.9 1023.4 0.8
28/07:58am 8.1 4.8 6.4 89 0.8 NW 13 15 7 8 1022.9 1023.4 0.8
28/07:30am 7.5 4.6 6.4 93 0.5 NW 11 13 6 7 1022.5 1023.0 0.8
28/07:00am 6.6 4.0 6.3 98 0.1 NW 9 11 5 6 1022.1 1022.5 0.8
28/06:45am 5.9 3.2 5.5 97 0.2 NW 9 11 5 6 1021.9 1022.3 0.8
28/06:30am 6.3 3.7 5.9 97 0.2 NW 9 11 5 6 1021.9 1022.3 0.8
28/06:00am 6.8 3.9 6.4 97 0.2 NW 11 13 6 7 1021.5 1022.0 0.8
28/05:30am 6.7 3.8 6.4 98 0.1 NW 11 13 6 7 1021.3 1021.8 0.8
28/05:00am 6.5 3.9 6.1 97 0.2 WNW 9 11 5 6 1021.0 1021.5 0.8
28/04:30am 7.3 4.8 6.6 95 0.3 WNW 9 13 5 7 1021.1 1021.6 0.8
28/04:00am 7.7 5.6 6.5 92 0.6 WNW 7 11 4 6 1020.8 1021.3 0.8
28/03:30am 7.7 4.9 7.0 95 0.3 WNW 11 19 6 10 1020.8 1021.3 0.8
28/03:00am 7.3 5.2 6.7 96 0.3 WNW 7 11 4 6 1020.7 1021.2 0.8
28/02:30am 7.1 4.6 6.5 96 0.3 NW 9 11 5 6 1020.9 1021.4 0.8
28/02:02am 7.5 4.7 6.8 95 0.3 NNW 11 13 6 7 1021.1 1021.6 0.8
28/02:00am 7.0 4.1 6.3 95 0.3 NNW 11 13 6 7 1021.1 1021.6 0.8
28/01:42am 7.7 5.6 6.6 93 0.5 NNW 7 9 4 5 1021.2 1021.7 0.8
28/01:30am 8.0 5.9 6.6 91 0.7 NW 7 11 4 6 1021.3 1021.8 0.8
28/01:00am 8.1 5.6 6.4 89 0.8 WNW 9 13 5 7 1021.5 1022.0 0.8
28/12:30am 7.8 5.2 5.9 88 0.9 NNW 9 11 5 6 1021.3 1021.8 0.8
28/12:00am 8.3 6.1 6.3 87 0.9 NW 7 13 4 7 1021.4 1021.9 0.8
 
Date/Time
EST
Temp
°C
App
Temp
°C
Dew
Point
Rel
Hum
%
Delta-T
°C
Wind Press
QNH
hPa
Press
MSL
hPa
Rain
since 9 am
mm
Dir
 
Spd
km/h
Gust
km/h
Spd
kts
Gust
kts
27/11:55pm 8.4 6.2 6.4 87 0.9 NW 7 13 4 7 1021.4 1021.9 0.8
27/11:30pm 8.1 6.6 6.7 91 0.7 NNE 4 9 2 5 1021.4 1021.9 0.8
27/11:20pm 8.1 6.6 6.6 90 0.7 NNE 4 6 2 3 1021.5 1022.0 0.8
27/11:00pm 7.8 5.2 6.3 90 0.7 NNW 9 11 5 6 1021.4 1021.9 0.8
27/10:40pm 8.1 6.0 6.6 90 0.7 NNW 7 11 4 6 1021.4 1021.9 0.8
27/10:30pm 8.2 6.3 6.5 89 0.8 NW 6 11 3 6 1021.5 1022.0 0.8
27/10:00pm 7.2 4.8 5.3 88 0.9 NNW 7 9 4 5 1021.7 1022.1 0.8
27/09:30pm 8.4 6.0 5.3 81 1.4 SW 7 11 4 6 1021.5 1022.0 0.8
27/09:00pm 8.8 6.2 6.1 83 1.3 WSW 9 11 5 6 1021.7 1022.1 0.8
27/08:30pm 9.5 7.7 8.1 91 0.7 WNW 7 13 4 7 1021.4 1021.9 0.8
27/08:00pm 9.4 7.8 8.9 97 0.3 NW 7 9 4 5 1021.2 1021.7 0.8
27/07:30pm 9.3 7.3 8.8 97 0.3 NW 9 11 5 6 1020.8 1021.3 0.8
27/07:00pm 9.9 8.9 9.0 94 0.5 ESE 4 11 2 6 1020.3 1020.7 0.8
27/06:30pm 10.1 9.6 9.5 96 0.3 SSW 2 7 1 4 1020.1 1020.5 0.8
27/06:00pm 10.2 8.9 9.9 98 0.2 SSE 7 9 4 5 1019.8 1020.2 0.4
27/05:30pm 10.8 7.8 9.1 89 0.9 SW 15 19 8 10 1019.5 1019.9 0.2
27/05:00pm 13.3 8.4 7.1 66 3.1 NW 22 33 12 18 1018.9 1019.4 0.2
27/04:30pm 14.0 9.4 6.4 60 3.7 NW 20 30 11 16 1018.5 1018.9 0.2
27/04:00pm 14.6 9.8 7.2 61 3.7 NNW 22 30 12 16 1018.4 1018.8 0.0
27/03:30pm 14.9 9.6 7.0 59 4.0 NW 24 33 13 18 1018.5 1018.9 0.0
27/03:00pm 14.0 8.4 7.1 63 3.4 NW 26 35 14 19 1018.6 1019.0 0.0
27/02:30pm 14.0 9.5 8.4 69 2.9 NNW 22 33 12 18 1018.9 1019.4 0.0
27/02:00pm 13.9 9.8 8.7 71 2.7 NW 20 30 11 16 1019.2 1019.7 0.0
27/01:30pm 13.9 8.7 8.9 72 2.6 NNW 26 33 14 18 1019.6 1020.0 0.0
27/01:00pm 13.6 9.6 8.9 73 2.4 NW 20 32 11 17 1019.9 1020.3 0.0
27/12:30pm 12.9 8.2 9.4 79 1.8 NW 24 32 13 17 1020.4 1020.8 0.0
27/12:08pm 12.9 9.2 10.3 84 1.4 NW 20 30 11 16 1020.7 1021.2 0.0
27/12:00pm 12.9 8.8 10.1 83 1.5 NW 22 30 12 16 1020.9 1021.4 0.0
27/11:54am 12.9 9.2 10.3 84 1.4 NW 20 28 11 15 1020.9 1021.4 0.0
27/11:52am 12.8 9.1 10.0 83 1.5 NW 20 28 11 15 1021.0 1021.5 0.0
27/11:30am 12.6 9.2 10.5 87 1.1 NW 19 26 10 14 1021.2 1021.7 0.0

Other Formats:

Comma delimited format used in spreadsheet applications
http://www.bom.gov.au/fwo/IDN60801/IDN60801.94727.axf

JavaScript Object Notation format (JSON) in row-major order
http://www.bom.gov.au/fwo/IDN60801/IDN60801.94727.json